Time;durP1;ratioP1;P1;durP2;ratioP2;P2;SDS_P1;SDS_P2;PMS_P1;PMS_P2;Temp;Humidity;BMP_temperature;BMP_pressure;BME280_temperature;BME280_humidity;BME280_pressure;Samples;Min_cycle;Max_cycle;Signal;HPM_P1;HPM_P2
2021/08/14 00:01:40;;;;;;;;;;;15.70;99.90;;;;;;5056803;28;19907;-81
2021/08/14 00:04:05;;;;;;;;;;;15.70;99.90;;;;;;5056647;28;19905;-80
2021/08/14 00:06:31;;;;;;;;;;;15.70;99.90;;;;;;5056911;28;19954;-80
2021/08/14 00:08:56;;;;;;;;;;;15.70;99.90;;;;;;5057044;28;19999;-80
2021/08/14 00:11:22;;;;;;;;;;;15.70;99.90;;;;;;5056720;28;19908;-80
2021/08/14 00:13:48;;;;;;;;;;;15.70;99.90;;;;;;5057620;28;19912;-81
2021/08/14 00:16:13;;;;;;;;;;;15.60;99.90;;;;;;5056216;28;19913;-80
2021/08/14 00:18:39;;;;;;;;;;;15.60;99.90;;;;;;5057964;28;20262;-81
2021/08/14 00:21:04;;;;;;;;;;;15.60;99.90;;;;;;5056257;28;19913;-80
2021/08/14 00:23:30;;;;;;;;;;;15.50;99.90;;;;;;5057154;28;19905;-80
2021/08/14 00:25:57;;;;;;;;;;;15.50;99.90;;;;;;5056416;28;19908;-82
2021/08/14 00:28:23;;;;;;;;;;;15.50;99.90;;;;;;5056588;28;19901;-80
2021/08/14 00:30:48;;;;;;;;;;;15.50;99.90;;;;;;5056478;28;19915;-80
2021/08/14 00:33:14;;;;;;;;;;;15.40;99.90;;;;;;5056759;28;20380;-80
2021/08/14 00:35:40;;;;;;;;;;;15.40;99.90;;;;;;5056252;28;19905;-80
2021/08/14 00:38:05;;;;;;;;;;;15.30;99.90;;;;;;5056483;28;19904;-80
2021/08/14 00:40:31;;;;;;;;;;;15.30;99.90;;;;;;5057608;28;19908;-80
2021/08/14 00:42:56;;;;;;;;;;;15.30;99.90;;;;;;5056545;28;20357;-80
2021/08/14 00:45:22;;;;;;;;;;;15.30;99.90;;;;;;5056394;28;19905;-80
2021/08/14 00:47:47;;;;;;;;;;;15.30;99.90;;;;;;5055495;28;19909;-81
2021/08/14 00:50:13;;;;;;;;;;;15.30;99.90;;;;;;5057551;28;19912;-80
2021/08/14 00:52:38;;;;;;;;;;;15.30;99.90;;;;;;5056496;28;19991;-81
2021/08/14 00:55:04;;;;;;;;;;;15.40;99.90;;;;;;5058800;28;20343;-80
2021/08/14 00:57:29;;;;;;;;;;;15.30;99.90;;;;;;5057027;28;19909;-81
2021/08/14 00:59:55;;;;;;;;;;;15.20;99.90;;;;;;5055899;28;20010;-81
2021/08/14 01:02:21;;;;;;;;;;;15.10;99.90;;;;;;5056645;28;19944;-81
2021/08/14 01:04:47;;;;;;;;;;;15.10;99.90;;;;;;5056318;28;19908;-80
2021/08/14 01:07:12;;;;;;;;;;;15.00;99.90;;;;;;5055904;28;19943;-80
2021/08/14 01:09:38;;;;;;;;;;;15.00;99.90;;;;;;5054815;28;19912;-81
2021/08/14 01:12:03;;;;;;;;;;;15.00;99.90;;;;;;5056584;28;19905;-80
2021/08/14 01:14:31;;;;;;;;;;;15.10;99.90;;;;;;5054801;28;19916;-81
2021/08/14 01:16:56;;;;;;;;;;;15.10;99.90;;;;;;5054791;28;19916;-80
2021/08/14 01:19:22;;;;;;;;;;;15.10;99.90;;;;;;5056051;28;19927;-80
2021/08/14 01:21:52;;;;;;;;;;;15.20;99.90;;;;;;5055472;28;19959;-80
2021/08/14 01:24:18;;;;;;;;;;;15.30;99.90;;;;;;5056298;28;19905;-80
2021/08/14 01:26:47;;;;;;;;;;;15.30;99.90;;;;;;5054390;28;19904;-81
2021/08/14 01:29:13;;;;;;;;;;;15.20;99.90;;;;;;5055824;28;19905;-80
2021/08/14 01:31:39;;;;;;;;;;;15.20;99.90;;;;;;5055529;28;19911;-81
2021/08/14 01:34:04;;;;;;;;;;;15.20;99.90;;;;;;5055376;28;19915;-81
2021/08/14 01:36:29;;;;;;;;;;;15.10;99.90;;;;;;5055354;28;20006;-81
2021/08/14 01:38:59;;;;;;;;;;;15.10;99.90;;;;;;5055479;28;19964;-81
2021/08/14 01:41:25;;;;;;;;;;;15.10;99.90;;;;;;5056435;28;19909;-81
2021/08/14 01:43:52;;;;;;;;;;;15.00;99.90;;;;;;5059289;28;19905;-81
2021/08/14 01:46:18;;;;;;;;;;;15.00;99.90;;;;;;5058855;28;19904;-80
2021/08/14 01:48:44;;;;;;;;;;;14.90;99.90;;;;;;5059787;28;20353;-80
2021/08/14 01:51:09;;;;;;;;;;;15.00;99.90;;;;;;5059267;28;19908;-81
2021/08/14 01:53:35;;;;;;;;;;;14.90;99.90;;;;;;5059397;28;19905;-81
2021/08/14 01:56:00;;;;;;;;;;;14.90;99.90;;;;;;5058196;28;19905;-81
2021/08/14 01:58:26;;;;;;;;;;;14.90;99.90;;;;;;5058443;28;20007;-80
2021/08/14 02:00:51;;;;;;;;;;;14.80;99.90;;;;;;5058534;28;19908;-80
2021/08/14 02:03:17;;;;;;;;;;;14.70;99.90;;;;;;5059402;28;19905;-80
2021/08/14 02:05:45;;;;;;;;;;;14.60;99.90;;;;;;5059268;28;19905;-80
2021/08/14 02:08:10;;;;;;;;;;;14.60;99.90;;;;;;5059908;28;20007;-81
2021/08/14 02:10:36;;;;;;;;;;;14.50;99.90;;;;;;5059645;28;19956;-81
2021/08/14 02:13:01;;;;;;;;;;;14.40;99.90;;;;;;5059578;28;19909;-80
2021/08/14 02:15:27;;;;;;;;;;;14.30;99.90;;;;;;5059445;28;20003;-83
2021/08/14 02:17:52;;;;;;;;;;;14.30;99.90;;;;;;5059821;28;19955;-81
2021/08/14 02:20:18;;;;;;;;;;;14.30;99.90;;;;;;5057813;28;20365;-80
2021/08/14 02:22:43;;;;;;;;;;;14.30;99.90;;;;;;5055852;28;19913;-80
2021/08/14 02:25:09;;;;;;;;;;;14.40;99.90;;;;;;5056331;28;19909;-80
2021/08/14 02:27:34;;;;;;;;;;;14.40;99.90;;;;;;5058150;28;19908;-80
2021/08/14 02:30:00;;;;;;;;;;;14.30;99.90;;;;;;5057319;28;19915;-80
2021/08/14 02:32:26;;;;;;;;;;;14.30;99.90;;;;;;5057364;28;19905;-81
2021/08/14 02:34:51;;;;;;;;;;;14.20;99.90;;;;;;5059231;28;19908;-80
2021/08/14 02:37:17;;;;;;;;;;;14.20;99.90;;;;;;5057665;28;19905;-81
2021/08/14 02:39:42;;;;;;;;;;;14.20;99.90;;;;;;5057724;28;19913;-80
2021/08/14 02:42:08;;;;;;;;;;;14.20;99.90;;;;;;5057215;28;19904;-81
2021/08/14 02:44:33;;;;;;;;;;;14.20;99.90;;;;;;5057692;28;19938;-81
2021/08/14 02:46:59;;;;;;;;;;;14.20;99.90;;;;;;5057173;28;19958;-81
2021/08/14 02:49:24;;;;;;;;;;;14.30;99.90;;;;;;5056542;28;20041;-81
2021/08/14 02:51:50;;;;;;;;;;;14.40;99.90;;;;;;5057888;28;19905;-81
2021/08/14 02:54:15;;;;;;;;;;;14.50;99.90;;;;;;5059495;28;19999;-81
2021/08/14 02:56:41;;;;;;;;;;;14.40;99.90;;;;;;5058206;28;19905;-81
2021/08/14 02:59:06;;;;;;;;;;;14.30;99.90;;;;;;5059009;28;19913;-82
2021/08/14 03:01:32;;;;;;;;;;;14.40;99.90;;;;;;5058455;28;19909;-81
2021/08/14 03:03:58;;;;;;;;;;;14.40;99.90;;;;;;5058413;28;19908;-81
2021/08/14 03:06:27;;;;;;;;;;;14.30;99.90;;;;;;5056965;28;20110;-81
2021/08/14 03:08:53;;;;;;;;;;;14.40;99.90;;;;;;5058715;28;19908;-81
2021/08/14 03:11:18;;;;;;;;;;;14.40;99.90;;;;;;5058561;28;20250;-80
2021/08/14 03:13:44;;;;;;;;;;;14.50;99.90;;;;;;5058441;28;19927;-81
2021/08/14 03:16:10;;;;;;;;;;;14.30;99.90;;;;;;5057803;28;19919;-80
2021/08/14 03:18:35;;;;;;;;;;;14.20;99.90;;;;;;5059410;28;19990;-81
2021/08/14 03:21:01;;;;;;;;;;;14.20;99.90;;;;;;5059366;28;19983;-80
2021/08/14 03:23:26;;;;;;;;;;;14.20;99.90;;;;;;5057491;28;20250;-81
2021/08/14 03:25:52;;;;;;;;;;;14.20;99.90;;;;;;5058748;28;19956;-81
2021/08/14 03:28:17;;;;;;;;;;;14.10;99.90;;;;;;5059444;28;19939;-81
2021/08/14 03:30:43;;;;;;;;;;;14.10;99.90;;;;;;5057622;28;19904;-81
2021/08/14 03:33:08;;;;;;;;;;;14.10;99.90;;;;;;5057952;28;19944;-82
2021/08/14 03:35:34;;;;;;;;;;;14.10;99.90;;;;;;5058990;28;19904;-81
2021/08/14 03:37:59;;;;;;;;;;;14.10;99.90;;;;;;5057584;28;19912;-81
2021/08/14 03:40:25;;;;;;;;;;;14.10;99.90;;;;;;5057159;28;19913;-81
2021/08/14 03:42:50;;;;;;;;;;;14.10;99.90;;;;;;5057594;28;19931;-81
2021/08/14 03:45:16;;;;;;;;;;;14.00;99.90;;;;;;5057356;28;19905;-81
2021/08/14 03:47:41;;;;;;;;;;;14.10;99.90;;;;;;5057313;28;19992;-81
2021/08/14 03:50:07;;;;;;;;;;;14.10;99.90;;;;;;5057151;28;20377;-81
2021/08/14 03:52:33;;;;;;;;;;;14.00;99.90;;;;;;5057405;28;19935;-80
2021/08/14 03:54:59;;;;;;;;;;;13.90;99.90;;;;;;5059160;28;19905;-81
2021/08/14 03:57:26;;;;;;;;;;;14.00;99.90;;;;;;5057225;28;20023;-80
2021/08/14 03:59:51;;;;;;;;;;;13.90;99.90;;;;;;5057155;28;19916;-82
2021/08/14 04:02:17;;;;;;;;;;;14.00;99.90;;;;;;5057138;28;19908;-81
2021/08/14 04:04:42;;;;;;;;;;;14.00;99.90;;;;;;5057160;28;19915;-83
2021/08/14 04:07:08;;;;;;;;;;;14.00;99.90;;;;;;5056753;28;19905;-84
2021/08/14 04:09:33;;;;;;;;;;;14.00;99.90;;;;;;5056553;28;19905;-84
2021/08/14 04:11:59;;;;;;;;;;;14.00;99.90;;;;;;5056692;28;19905;-84
2021/08/14 04:14:24;;;;;;;;;;;14.00;99.90;;;;;;5057145;28;19909;-84
2021/08/14 04:16:50;;;;;;;;;;;14.00;99.90;;;;;;5056416;28;19912;-83
2021/08/14 04:19:15;;;;;;;;;;;14.00;99.90;;;;;;5056778;28;19905;-84
2021/08/14 04:21:41;;;;;;;;;;;13.90;99.90;;;;;;5058165;28;19912;-83
2021/08/14 04:24:07;;;;;;;;;;;13.90;99.90;;;;;;5039615;28;19942;-83
2021/08/14 04:26:32;;;;;;;;;;;13.90;99.90;;;;;;5055767;28;20281;-84
2021/08/14 04:28:58;;;;;;;;;;;13.90;99.90;;;;;;5056764;28;19905;-81
2021/08/14 04:31:23;;;;;;;;;;;13.90;99.90;;;;;;5056316;28;19912;-82
2021/08/14 04:33:49;;;;;;;;;;;13.90;99.90;;;;;;5056707;28;19904;-81
2021/08/14 04:36:14;;;;;;;;;;;14.00;99.90;;;;;;5057836;28;20284;-81
2021/08/14 04:38:40;;;;;;;;;;;14.00;99.90;;;;;;5055740;28;19916;-81
2021/08/14 04:41:05;;;;;;;;;;;14.10;99.90;;;;;;5056995;28;19917;-81
2021/08/14 04:43:31;;;;;;;;;;;14.20;99.90;;;;;;5058655;28;20361;-81
2021/08/14 04:45:56;;;;;;;;;;;14.20;99.90;;;;;;5056575;28;19931;-82
2021/08/14 04:48:22;;;;;;;;;;;14.10;99.90;;;;;;5057181;28;19912;-82
2021/08/14 04:50:47;;;;;;;;;;;14.10;99.90;;;;;;5056334;28;20353;-83
2021/08/14 04:53:13;;;;;;;;;;;14.10;99.90;;;;;;5057760;28;20388;-83
2021/08/14 04:55:38;;;;;;;;;;;14.00;99.90;;;;;;5057460;28;20479;-83
2021/08/14 04:58:04;;;;;;;;;;;14.00;99.90;;;;;;5057120;28;19961;-83
2021/08/14 05:00:29;;;;;;;;;;;14.10;99.90;;;;;;5056628;28;19909;-83
2021/08/14 05:02:55;;;;;;;;;;;14.10;99.90;;;;;;5056177;28;20003;-83
2021/08/14 05:05:20;;;;;;;;;;;14.10;99.90;;;;;;5056479;28;20076;-84
2021/08/14 05:07:46;;;;;;;;;;;14.10;99.90;;;;;;5056354;28;19908;-82
2021/08/14 05:10:14;;;;;;;;;;;14.00;99.90;;;;;;5056493;28;20259;-83
2021/08/14 05:12:39;;;;;;;;;;;14.10;99.90;;;;;;5055994;28;19945;-83
2021/08/14 05:15:05;;;;;;;;;;;14.10;99.90;;;;;;5055830;28;20370;-82
2021/08/14 05:17:31;;;;;;;;;;;14.10;99.90;;;;;;5055950;28;19958;-83
2021/08/14 05:19:56;;;;;;;;;;;14.20;99.90;;;;;;5055676;28;19916;-83
2021/08/14 05:22:22;;;;;;;;;;;14.20;99.90;;;;;;5055528;28;19911;-83
2021/08/14 05:24:47;;;;;;;;;;;14.20;99.90;;;;;;5055941;28;20346;-83
2021/08/14 05:27:12;;;;;;;;;;;14.30;99.90;;;;;;5056233;28;20369;-84
2021/08/14 05:29:39;;;;;;;;;;;14.30;99.90;;;;;;5058573;28;19905;-83
2021/08/14 05:32:06;;;;;;;;;;;14.50;99.90;;;;;;5056852;28;19915;-82
2021/08/14 05:34:32;;;;;;;;;;;14.50;99.90;;;;;;5052094;28;19905;-82
2021/08/14 05:36:57;;;;;;;;;;;14.50;99.90;;;;;;5052173;28;19931;-83
2021/08/14 05:39:23;;;;;;;;;;;14.60;99.90;;;;;;5051877;28;20238;-83
2021/08/14 05:41:52;;;;;;;;;;;14.70;99.90;;;;;;5055989;28;19904;-83
2021/08/14 05:44:18;;;;;;;;;;;14.70;99.90;;;;;;5055924;28;19913;-83
2021/08/14 05:46:44;;;;;;;;;;;14.80;99.90;;;;;;5055040;28;19943;-83
2021/08/14 05:49:09;;;;;;;;;;;14.80;99.90;;;;;;5055006;28;19951;-82
2021/08/14 05:51:36;;;;;;;;;;;14.90;99.90;;;;;;5056135;28;19955;-82
2021/08/14 05:54:02;;;;;;;;;;;14.90;99.90;;;;;;5056331;28;20369;-82
2021/08/14 05:56:27;;;;;;;;;;;15.00;99.90;;;;;;5054942;28;19950;-83
2021/08/14 05:58:53;;;;;;;;;;;15.10;99.90;;;;;;5056579;28;19909;-83
2021/08/14 06:01:18;;;;;;;;;;;15.00;99.90;;;;;;5055608;28;19912;-83
2021/08/14 06:03:44;;;;;;;;;;;15.00;99.90;;;;;;5055287;28;19908;-83
2021/08/14 06:06:09;;;;;;;;;;;15.10;99.90;;;;;;5056668;28;19908;-82
2021/08/14 06:08:35;;;;;;;;;;;15.10;99.90;;;;;;5055405;28;19995;-80
2021/08/14 06:11:01;;;;;;;;;;;15.20;99.90;;;;;;5054738;28;20007;-81
2021/08/14 06:13:27;;;;;;;;;;;15.20;99.90;;;;;;5055569;28;19916;-81
2021/08/14 06:15:52;;;;;;;;;;;15.30;99.90;;;;;;5055722;28;20356;-81
2021/08/14 06:18:18;;;;;;;;;;;15.40;99.90;;;;;;5055426;28;19940;-81
2021/08/14 06:20:43;;;;;;;;;;;15.50;99.90;;;;;;5055750;28;19935;-81
2021/08/14 06:23:09;;;;;;;;;;;15.50;99.90;;;;;;5055634;28;19905;-81
2021/08/14 06:25:34;;;;;;;;;;;15.70;99.90;;;;;;5055179;28;19963;-81
2021/08/14 06:28:00;;;;;;;;;;;15.70;99.90;;;;;;5057544;28;20042;-81
2021/08/14 06:30:25;;;;;;;;;;;15.90;99.90;;;;;;5059669;28;19913;-81
2021/08/14 06:32:51;;;;;;;;;;;16.00;99.90;;;;;;5059803;28;19911;-81
2021/08/14 06:35:16;;;;;;;;;;;16.20;99.90;;;;;;5059849;28;19935;-81
2021/08/14 06:37:43;;;;;;;;;;;16.30;99.90;;;;;;5059740;28;19908;-81
2021/08/14 06:40:10;;;;;;;;;;;16.40;99.90;;;;;;5060443;28;19987;-81
2021/08/14 06:42:36;;;;;;;;;;;16.50;99.90;;;;;;5059364;28;20351;-81
2021/08/14 06:45:01;;;;;;;;;;;16.40;99.90;;;;;;5059866;28;19950;-81
2021/08/14 06:47:27;;;;;;;;;;;16.40;99.90;;;;;;5058824;28;19912;-81
2021/08/14 06:49:52;;;;;;;;;;;16.40;99.90;;;;;;5058959;28;20393;-81
2021/08/14 06:52:18;;;;;;;;;;;16.50;99.90;;;;;;5059185;28;19927;-82
2021/08/14 06:54:43;;;;;;;;;;;16.70;99.90;;;;;;5060164;28;20353;-80
2021/08/14 06:57:09;;;;;;;;;;;16.80;99.90;;;;;;5059337;28;20445;-81
2021/08/14 06:59:34;;;;;;;;;;;16.80;99.90;;;;;;5059519;28;19908;-81
2021/08/14 07:02:00;;;;;;;;;;;16.80;99.90;;;;;;5058259;28;19904;-81
2021/08/14 07:04:25;;;;;;;;;;;16.80;99.90;;;;;;5057281;28;20278;-81
2021/08/14 07:06:51;;;;;;;;;;;16.80;99.90;;;;;;5057615;28;19928;-81
2021/08/14 07:09:16;;;;;;;;;;;17.00;99.90;;;;;;5058404;28;19912;-81
2021/08/14 07:11:45;;;;;;;;;;;17.10;99.90;;;;;;5057755;28;19928;-81
2021/08/14 07:14:11;;;;;;;;;;;17.20;99.90;;;;;;5058189;28;19905;-81
2021/08/14 07:16:37;;;;;;;;;;;17.90;99.90;;;;;;5058080;28;20378;-81
2021/08/14 07:19:02;;;;;;;;;;;19.00;99.90;;;;;;5058784;28;19904;-81
2021/08/14 07:21:28;;;;;;;;;;;20.50;99.90;;;;;;5058041;28;19917;-80
2021/08/14 07:23:54;;;;;;;;;;;21.30;99.90;;;;;;5058652;28;19905;-80
2021/08/14 07:26:19;;;;;;;;;;;22.00;99.90;;;;;;5056539;28;20349;-80
2021/08/14 07:28:45;;;;;;;;;;;22.80;99.90;;;;;;5055078;28;19904;-79
2021/08/14 07:31:10;;;;;;;;;;;22.80;99.90;;;;;;5054601;28;19965;-78
2021/08/14 07:33:36;;;;;;;;;;;22.20;99.90;;;;;;5054568;28;19961;-77
2021/08/14 07:36:02;;;;;;;;;;;22.80;99.90;;;;;;5054328;28;19912;-77
2021/08/14 07:38:27;;;;;;;;;;;23.00;99.90;;;;;;5054163;28;19909;-77
2021/08/14 07:40:53;;;;;;;;;;;21.80;99.90;;;;;;5055282;28;19951;-77
2021/08/14 07:43:18;;;;;;;;;;;21.90;99.90;;;;;;5054703;28;19905;-79
2021/08/14 07:45:44;;;;;;;;;;;22.70;99.90;;;;;;5054904;28;19927;-79
2021/08/14 07:48:09;;;;;;;;;;;23.40;99.90;;;;;;5055683;28;19912;-79
2021/08/14 07:50:35;;;;;;;;;;;23.60;99.90;;;;;;5054521;28;20357;-78
2021/08/14 07:53:03;;;;;;;;;;;23.40;99.90;;;;;;5054664;28;19904;-80
2021/08/14 07:55:29;;;;;;;;;;;22.70;99.90;;;;;;5054724;28;20377;-79
2021/08/14 07:57:54;;;;;;;;;;;22.40;99.90;;;;;;5054694;28;19927;-79
2021/08/14 08:00:21;;;;;;;;;;;22.20;99.90;;;;;;5054704;28;19909;-79
2021/08/14 08:02:47;;;;;;;;;;;22.90;99.90;;;;;;5054634;28;19955;-79
2021/08/14 08:05:13;;;;;;;;;;;23.10;99.90;;;;;;5055366;28;19905;-79
2021/08/14 08:07:40;;;;;;;;;;;23.10;99.90;;;;;;5054884;28;19971;-79
2021/08/14 08:10:07;;;;;;;;;;;23.70;99.90;;;;;;5055258;28;20003;-79
2021/08/14 08:12:32;;;;;;;;;;;23.00;99.90;;;;;;5054681;28;19944;-79
2021/08/14 08:14:58;;;;;;;;;;;22.50;99.90;;;;;;5054453;28;19912;-80
2021/08/14 08:17:23;;;;;;;;;;;23.40;99.90;;;;;;5054553;28;19915;-80
2021/08/14 08:19:49;;;;;;;;;;;24.40;99.90;;;;;;5054440;28;19970;-79
2021/08/14 08:22:14;;;;;;;;;;;25.30;99.90;;;;;;5053722;28;19905;-79
2021/08/14 08:24:40;;;;;;;;;;;25.70;99.90;;;;;;5053936;28;19930;-79
2021/08/14 08:27:06;;;;;;;;;;;26.10;99.90;;;;;;5053576;28;19904;-79
2021/08/14 08:29:31;;;;;;;;;;;24.90;99.90;;;;;;5053790;28;19904;-79
2021/08/14 08:31:56;;;;;;;;;;;25.10;99.90;;;;;;5053449;28;19908;-79
2021/08/14 08:34:24;;;;;;;;;;;25.60;99.90;;;;;;5054764;28;19911;-79
2021/08/14 08:36:53;;;;;;;;;;;26.30;99.90;;;;;;5054318;28;19905;-79
2021/08/14 08:39:18;;;;;;;;;;;26.20;99.90;;;;;;5053879;28;20011;-79
2021/08/14 08:41:44;;;;;;;;;;;26.30;99.90;;;;;;5052092;28;20012;-79
2021/08/14 08:44:09;;;;;;;;;;;26.40;99.90;;;;;;5054117;28;19911;-79
2021/08/14 08:46:35;;;;;;;;;;;26.20;99.90;;;;;;5051639;28;19971;-79
2021/08/14 08:49:02;;;;;;;;;;;25.60;99.90;;;;;;5053048;28;19908;-78
2021/08/14 08:51:29;;;;;;;;;;;24.80;99.90;;;;;;5051459;28;19916;-78
2021/08/14 08:53:54;;;;;;;;;;;25.10;99.90;;;;;;5051988;28;20350;-78
2021/08/14 08:56:20;;;;;;;;;;;24.70;99.90;;;;;;5052306;28;19905;-78
2021/08/14 08:58:46;;;;;;;;;;;25.30;99.90;;;;;;5053222;28;19904;-78
2021/08/14 09:01:11;;;;;;;;;;;26.00;99.90;;;;;;5053684;28;19962;-78
2021/08/14 09:03:37;;;;;;;;;;;26.60;99.90;;;;;;5052778;28;19908;-78
2021/08/14 09:06:02;;;;;;;;;;;26.10;99.90;;;;;;5053977;28;19905;-78
2021/08/14 09:08:28;;;;;;;;;;;26.70;99.90;;;;;;5052359;28;20003;-78
2021/08/14 09:11:07;;;;;;;;;;;26.50;99.90;;;;;;5052045;28;19911;-78
2021/08/14 09:13:33;;;;;;;;;;;26.00;99.90;;;;;;5052218;28;19905;-78
2021/08/14 09:16:15;;;;;;;;;;;26.30;99.90;;;;;;5053038;28;20358;-78
2021/08/14 09:18:51;;;;;;;;;;;26.00;99.90;;;;;;5053509;28;19919;-78
2021/08/14 09:21:27;;;;;;;;;;;25.80;99.90;;;;;;5051665;28;19941;-78
2021/08/14 09:23:53;;;;;;;;;;;26.10;99.90;;;;;;5052634;28;19904;-78
2021/08/14 09:26:18;;;;;;;;;;;26.80;99.90;;;;;;5052942;28;19943;-78
2021/08/14 09:28:44;;;;;;;;;;;27.10;99.90;;;;;;5053930;28;19931;-78
2021/08/14 09:31:11;;;;;;;;;;;26.30;99.90;;;;;;5052479;28;19909;-78
2021/08/14 09:33:37;;;;;;;;;;;25.50;99.90;;;;;;5052445;28;20280;-78
2021/08/14 09:36:10;;;;;;;;;;;24.40;99.90;;;;;;5054008;28;19909;-78
2021/08/14 09:38:45;;;;;;;;;;;24.60;99.90;;;;;;5054268;28;19911;-78
2021/08/14 09:41:12;;;;;;;;;;;25.00;99.90;;;;;;5053410;28;19916;-79
2021/08/14 09:43:38;;;;;;;;;;;25.70;99.90;;;;;;5052681;28;19977;-80
2021/08/14 09:46:05;;;;;;;;;;;26.20;99.90;;;;;;5054202;28;20385;-79
2021/08/14 09:48:31;;;;;;;;;;;26.50;99.90;;;;;;5052527;28;19912;-79
2021/08/14 09:50:56;;;;;;;;;;;26.00;99.90;;;;;;5052612;28;20337;-79
2021/08/14 09:53:23;;;;;;;;;;;26.30;99.90;;;;;;5052829;28;19944;-79
2021/08/14 09:55:54;;;;;;;;;;;26.10;99.90;;;;;;5053186;28;19955;-79
2021/08/14 09:58:20;;;;;;;;;;;27.20;99.90;;;;;;5053180;28;19913;-79
2021/08/14 10:00:49;;;;;;;;;;;28.50;99.90;;;;;;5053978;28;19959;-79
2021/08/14 10:03:16;;;;;;;;;;;29.20;97.40;;;;;;5055577;28;19991;-79
2021/08/14 10:05:42;;;;;;;;;;;28.80;97.00;;;;;;5057851;28;19905;-80
2021/08/14 10:08:07;;;;;;;;;;;28.60;97.40;;;;;;5057395;28;19920;-80
2021/08/14 10:10:33;;;;;;;;;;;28.30;97.60;;;;;;5059187;28;19912;-80
2021/08/14 10:12:59;;;;;;;;;;;28.20;97.10;;;;;;5057566;28;19909;-79
2021/08/14 10:15:25;;;;;;;;;;;28.70;97.10;;;;;;5057181;28;19962;-79
2021/08/14 10:17:50;;;;;;;;;;;29.10;95.70;;;;;;5057216;28;19992;-79
2021/08/14 10:20:16;;;;;;;;;;;27.50;97.90;;;;;;5056304;28;20404;-79
2021/08/14 10:22:43;;;;;;;;;;;26.90;98.60;;;;;;5057628;28;20357;-79
2021/08/14 10:25:16;;;;;;;;;;;27.60;98.30;;;;;;5056388;28;20316;-80
2021/08/14 10:27:55;;;;;;;;;;;27.10;98.30;;;;;;5057487;28;20381;-80
2021/08/14 10:30:36;;;;;;;;;;;27.20;98.40;;;;;;5056484;28;19905;-79
2021/08/14 10:33:03;;;;;;;;;;;28.10;96.50;;;;;;5056623;28;19908;-79
2021/08/14 10:35:28;;;;;;;;;;;28.70;95.40;;;;;;5056962;28;19905;-79
2021/08/14 10:37:54;;;;;;;;;;;28.50;95.70;;;;;;5056929;28;19911;-79
2021/08/14 10:40:20;;;;;;;;;;;29.20;95.10;;;;;;5058568;28;19917;-79
2021/08/14 10:42:57;;;;;;;;;;;29.80;94.60;;;;;;5056880;28;19912;-80
2021/08/14 10:45:34;;;;;;;;;;;29.60;93.80;;;;;;5058191;28;19917;-80
2021/08/14 10:48:04;;;;;;;;;;;29.10;93.80;;;;;;5056452;28;19908;-80
2021/08/14 10:50:32;;;;;;;;;;;28.60;94.40;;;;;;5055788;28;19909;-79
2021/08/14 10:53:10;;;;;;;;;;;27.40;95.00;;;;;;5055389;28;19909;-80
2021/08/14 10:55:36;;;;;;;;;;;26.30;97.20;;;;;;5055321;28;19950;-80
2021/08/14 10:58:18;;;;;;;;;;;26.40;97.60;;;;;;5056530;28;20262;-79
2021/08/14 11:00:44;;;;;;;;;;;26.60;98.30;;;;;;5056828;28;20195;-79
2021/08/14 11:03:13;;;;;;;;;;;27.50;96.30;;;;;;5055761;28;20195;-79
2021/08/14 11:05:40;;;;;;;;;;;27.20;96.70;;;;;;5055195;28;19912;-79
2021/08/14 11:08:22;;;;;;;;;;;26.90;97.20;;;;;;5054879;28;19909;-80
2021/08/14 11:10:48;;;;;;;;;;;27.50;97.20;;;;;;5055927;28;20468;-80
2021/08/14 11:13:29;;;;;;;;;;;28.10;95.50;;;;;;5056602;28;19917;-80
2021/08/14 11:15:55;;;;;;;;;;;28.10;95.90;;;;;;5055758;28;19995;-80
2021/08/14 11:18:40;;;;;;;;;;;28.60;95.40;;;;;;5056159;28;19958;-80
2021/08/14 11:21:06;;;;;;;;;;;29.30;94.00;;;;;;5056440;28;19920;-80
2021/08/14 11:23:32;;;;;;;;;;;29.80;93.00;;;;;;5057063;28;19905;-79
2021/08/14 11:25:57;;;;;;;;;;;30.60;92.40;;;;;;5057909;28;19912;-79
2021/08/14 11:28:28;;;;;;;;;;;30.60;92.00;;;;;;5056679;28;19909;-79
2021/08/14 11:31:01;;;;;;;;;;;30.60;90.90;;;;;;5056097;28;19904;-79
2021/08/14 11:33:27;;;;;;;;;;;30.60;91.70;;;;;;5056137;28;19911;-79
2021/08/14 11:36:08;;;;;;;;;;;31.00;90.20;;;;;;5056476;28;20338;-79
2021/08/14 11:38:38;;;;;;;;;;;30.60;90.30;;;;;;5057154;28;20273;-79
2021/08/14 11:41:14;;;;;;;;;;;31.10;89.10;;;;;;5056124;28;20384;-79
2021/08/14 11:43:41;;;;;;;;;;;31.20;87.10;;;;;;5058341;28;20009;-79
2021/08/14 11:46:07;;;;;;;;;;;31.30;88.20;;;;;;5058001;28;19905;-79
2021/08/14 11:48:45;;;;;;;;;;;31.70;85.90;;;;;;5055909;28;19958;-79
2021/08/14 11:51:21;;;;;;;;;;;31.60;85.70;;;;;;5053539;28;19905;-79
2021/08/14 11:53:48;;;;;;;;;;;31.50;85.80;;;;;;5054396;28;19908;-80
2021/08/14 11:56:14;;;;;;;;;;;31.60;85.20;;;;;;5053870;28;19905;-80
2021/08/14 11:58:40;;;;;;;;;;;31.40;84.70;;;;;;5053724;28;19912;-80
2021/08/14 12:01:06;;;;;;;;;;;31.10;84.70;;;;;;5055443;28;20324;-79
2021/08/14 12:03:32;;;;;;;;;;;30.80;83.20;;;;;;5054734;28;19940;-80
2021/08/14 12:06:06;;;;;;;;;;;30.40;83.90;;;;;;5053917;28;19908;-80
2021/08/14 12:08:33;;;;;;;;;;;31.10;82.70;;;;;;5054338;28;19912;-80
2021/08/14 12:10:59;;;;;;;;;;;31.00;82.70;;;;;;5055181;28;19905;-80
2021/08/14 12:13:25;;;;;;;;;;;31.10;81.00;;;;;;5054362;28;19999;-80
2021/08/14 12:15:50;;;;;;;;;;;31.10;80.10;;;;;;5054119;28;19943;-80
2021/08/14 12:18:32;;;;;;;;;;;30.60;82.50;;;;;;5054406;28;20292;-80
2021/08/14 12:21:02;;;;;;;;;;;30.80;82.30;;;;;;5053966;28;19916;-80
2021/08/14 12:23:28;;;;;;;;;;;30.30;83.70;;;;;;5054934;28;19908;-80
2021/08/14 12:26:04;;;;;;;;;;;30.80;81.40;;;;;;5054402;28;19912;-80
2021/08/14 12:28:31;;;;;;;;;;;31.70;79.40;;;;;;5054470;28;20346;-80
2021/08/14 12:30:57;;;;;;;;;;;32.50;78.20;;;;;;5054154;28;20019;-80
2021/08/14 12:33:24;;;;;;;;;;;32.50;77.10;;;;;;5055671;28;19905;-80
2021/08/14 12:35:53;;;;;;;;;;;32.40;75.60;;;;;;5056119;28;19905;-80
2021/08/14 12:38:19;;;;;;;;;;;32.40;76.90;;;;;;5055835;28;19912;-81
2021/08/14 12:40:44;;;;;;;;;;;32.20;74.50;;;;;;5054608;28;19965;-80
2021/08/14 12:43:40;;;;;;;;;;;31.80;76.90;;;;;;5056822;28;19912;-79
2021/08/14 12:46:24;;;;;;;;;;;31.70;75.90;;;;;;5054173;28;19912;-79
2021/08/14 12:49:08;;;;;;;;;;;31.40;77.40;;;;;;5055718;28;19920;-79
2021/08/14 12:51:34;;;;;;;;;;;31.90;76.30;;;;;;5054937;28;20384;-79
2021/08/14 12:54:09;;;;;;;;;;;32.70;74.10;;;;;;5057227;28;19904;-79
2021/08/14 12:56:38;;;;;;;;;;;31.80;75.50;;;;;;5056300;28;19912;-79
2021/08/14 12:59:04;;;;;;;;;;;32.30;76.30;;;;;;5055773;28;19904;-79
2021/08/14 13:01:29;;;;;;;;;;;32.90;75.80;;;;;;5054867;28;19954;-80
2021/08/14 13:03:55;;;;;;;;;;;33.00;73.80;;;;;;5055530;28;20365;-80
2021/08/14 13:06:20;;;;;;;;;;;32.90;73.90;;;;;;5054867;28;19905;-79
2021/08/14 13:08:45;;;;;;;;;;;32.50;73.40;;;;;;5055172;28;19909;-79
2021/08/14 13:11:11;;;;;;;;;;;31.60;75.80;;;;;;5053519;28;20349;-79
2021/08/14 13:13:36;;;;;;;;;;;32.30;76.90;;;;;;5054370;28;19916;-79
2021/08/14 13:16:02;;;;;;;;;;;32.70;74.80;;;;;;5055154;28;20360;-79
2021/08/14 13:18:28;;;;;;;;;;;33.30;72.60;;;;;;5054900;28;19908;-79
2021/08/14 13:20:53;;;;;;;;;;;33.30;71.30;;;;;;5053545;28;19954;-79
2021/08/14 13:23:19;;;;;;;;;;;33.60;72.50;;;;;;5053312;28;19959;-79
2021/08/14 13:25:44;;;;;;;;;;;34.10;72.20;;;;;;5053264;28;19909;-79
2021/08/14 13:28:10;;;;;;;;;;;33.30;72.40;;;;;;5054653;28;19905;-79
2021/08/14 13:30:35;;;;;;;;;;;33.80;71.50;;;;;;5052874;28;20273;-79
2021/08/14 13:33:01;;;;;;;;;;;33.30;72.10;;;;;;5054587;28;19911;-79
2021/08/14 13:35:26;;;;;;;;;;;33.30;71.70;;;;;;5053177;28;20329;-79
2021/08/14 13:37:52;;;;;;;;;;;33.50;72.50;;;;;;5052930;28;19958;-79
2021/08/14 13:40:17;;;;;;;;;;;34.30;70.70;;;;;;5055457;28;19924;-80
2021/08/14 13:42:43;;;;;;;;;;;34.30;70.40;;;;;;5056109;28;19944;-79
2021/08/14 13:45:10;;;;;;;;;;;33.90;69.80;;;;;;5053457;28;19966;-79
2021/08/14 13:47:38;;;;;;;;;;;33.40;72.30;;;;;;5052915;28;20380;-79
2021/08/14 13:50:05;;;;;;;;;;;32.90;72.30;;;;;;5052683;28;19904;-79
2021/08/14 13:52:31;;;;;;;;;;;31.50;74.20;;;;;;5053723;28;20105;-79
2021/08/14 13:54:56;;;;;;;;;;;31.60;73.80;;;;;;5052659;28;19912;-79
2021/08/14 13:57:22;;;;;;;;;;;32.10;73.20;;;;;;5054549;28;19913;-79
2021/08/14 13:59:47;;;;;;;;;;;31.90;72.70;;;;;;5053835;28;19931;-79
2021/08/14 14:02:13;;;;;;;;;;;32.30;74.20;;;;;;5054253;28;20385;-79
2021/08/14 14:04:38;;;;;;;;;;;32.80;72.40;;;;;;5053091;28;19905;-79
2021/08/14 14:07:04;;;;;;;;;;;32.70;71.20;;;;;;5052757;28;19909;-79
2021/08/14 14:09:29;;;;;;;;;;;32.20;73.50;;;;;;5053938;28;20212;-79
2021/08/14 14:11:58;;;;;;;;;;;31.10;76.30;;;;;;5053956;28;20384;-79
2021/08/14 14:14:24;;;;;;;;;;;31.90;74.10;;;;;;5053252;28;20417;-79